sensor_id;sensor_type;location;lat;lon;timestamp;P1;durP1;ratioP1;P2;durP2;ratioP2
59074;SDS011;44860;53.020;6.738;2022-11-20T00:01:15;28.48;;;20.88;;
59074;SDS011;44860;53.020;6.738;2022-11-20T00:03:53;27.10;;;19.45;;
59074;SDS011;44860;53.020;6.738;2022-11-20T00:06:20;25.90;;;19.38;;
59074;SDS011;44860;53.020;6.738;2022-11-20T00:08:50;26.55;;;19.48;;
59074;SDS011;44860;53.020;6.738;2022-11-20T00:11:20;29.08;;;19.88;;
59074;SDS011;44860;53.020;6.738;2022-11-20T00:13:48;26.30;;;17.58;;
59074;SDS011;44860;53.020;6.738;2022-11-20T00:16:16;28.02;;;18.38;;
59074;SDS011;44860;53.020;6.738;2022-11-20T00:18:44;26.23;;;18.88;;
59074;SDS011;44860;53.020;6.738;2022-11-20T00:21:11;28.92;;;18.88;;
59074;SDS011;44860;53.020;6.738;2022-11-20T00:23:38;25.85;;;18.38;;
59074;SDS011;44860;53.020;6.738;2022-11-20T00:26:12;24.88;;;17.75;;
59074;SDS011;44860;53.020;6.738;2022-11-20T00:28:39;25.23;;;17.73;;
59074;SDS011;44860;53.020;6.738;2022-11-20T00:31:07;24.48;;;16.75;;
59074;SDS011;44860;53.020;6.738;2022-11-20T00:33:36;24.00;;;17.15;;
59074;SDS011;44860;53.020;6.738;2022-11-20T00:36:03;23.95;;;17.17;;
59074;SDS011;44860;53.020;6.738;2022-11-20T00:38:36;24.35;;;17.20;;
59074;SDS011;44860;53.020;6.738;2022-11-20T00:41:04;24.15;;;16.90;;
59074;SDS011;44860;53.020;6.738;2022-11-20T00:43:32;25.55;;;17.08;;
59074;SDS011;44860;53.020;6.738;2022-11-20T00:45:58;25.25;;;17.48;;
59074;SDS011;44860;53.020;6.738;2022-11-20T00:48:31;24.98;;;17.55;;
59074;SDS011;44860;53.020;6.738;2022-11-20T00:50:57;23.83;;;17.45;;
59074;SDS011;44860;53.020;6.738;2022-11-20T00:53:23;22.08;;;16.17;;
59074;SDS011;44860;53.020;6.738;2022-11-20T00:55:59;24.27;;;16.35;;
59074;SDS011;44860;53.020;6.738;2022-11-20T00:58:30;23.55;;;16.35;;
59074;SDS011;44860;53.020;6.738;2022-11-20T01:01:01;24.67;;;16.80;;
59074;SDS011;44860;53.020;6.738;2022-11-20T01:03:30;24.10;;;16.92;;
59074;SDS011;44860;53.020;6.738;2022-11-20T01:06:00;22.75;;;16.35;;
59074;SDS011;44860;53.020;6.738;2022-11-20T01:08:31;25.50;;;17.33;;
59074;SDS011;44860;53.020;6.738;2022-11-20T01:11:12;24.38;;;17.40;;
59074;SDS011;44860;53.020;6.738;2022-11-20T01:13:39;24.15;;;18.40;;
59074;SDS011;44860;53.020;6.738;2022-11-20T01:16:13;23.90;;;17.80;;
59074;SDS011;44860;53.020;6.738;2022-11-20T01:18:43;26.17;;;17.45;;
59074;SDS011;44860;53.020;6.738;2022-11-20T01:21:12;23.85;;;17.38;;
59074;SDS011;44860;53.020;6.738;2022-11-20T01:23:40;23.38;;;17.08;;
59074;SDS011;44860;53.020;6.738;2022-11-20T01:26:08;24.13;;;17.65;;
59074;SDS011;44860;53.020;6.738;2022-11-20T01:28:36;24.92;;;17.92;;
59074;SDS011;44860;53.020;6.738;2022-11-20T01:31:02;25.15;;;17.80;;
59074;SDS011;44860;53.020;6.738;2022-11-20T01:33:47;25.35;;;18.58;;
59074;SDS011;44860;53.020;6.738;2022-11-20T01:36:13;27.40;;;19.05;;
59074;SDS011;44860;53.020;6.738;2022-11-20T01:38:40;26.88;;;19.15;;
59074;SDS011;44860;53.020;6.738;2022-11-20T01:41:06;25.05;;;18.33;;
59074;SDS011;44860;53.020;6.738;2022-11-20T01:43:33;26.45;;;19.77;;
59074;SDS011;44860;53.020;6.738;2022-11-20T01:48:26;28.05;;;19.25;;
59074;SDS011;44860;53.020;6.738;2022-11-20T01:50:57;27.58;;;19.67;;
59074;SDS011;44860;53.020;6.738;2022-11-20T01:53:25;30.33;;;20.38;;
59074;SDS011;44860;53.020;6.738;2022-11-20T01:55:56;29.70;;;21.08;;
59074;SDS011;44860;53.020;6.738;2022-11-20T01:58:25;27.08;;;20.23;;
59074;SDS011;44860;53.020;6.738;2022-11-20T02:00:58;27.10;;;19.85;;
59074;SDS011;44860;53.020;6.738;2022-11-20T02:03:24;31.58;;;21.05;;
59074;SDS011;44860;53.020;6.738;2022-11-20T02:05:51;29.13;;;21.00;;
59074;SDS011;44860;53.020;6.738;2022-11-20T02:08:23;29.00;;;20.38;;
59074;SDS011;44860;53.020;6.738;2022-11-20T02:10:49;28.30;;;21.48;;
59074;SDS011;44860;53.020;6.738;2022-11-20T02:13:15;30.45;;;21.25;;
59074;SDS011;44860;53.020;6.738;2022-11-20T02:16:02;28.35;;;20.55;;
59074;SDS011;44860;53.020;6.738;2022-11-20T02:18:28;26.83;;;20.05;;
59074;SDS011;44860;53.020;6.738;2022-11-20T02:20:59;28.88;;;21.00;;
59074;SDS011;44860;53.020;6.738;2022-11-20T02:23:51;29.52;;;20.50;;
59074;SDS011;44860;53.020;6.738;2022-11-20T02:26:30;28.38;;;20.83;;
59074;SDS011;44860;53.020;6.738;2022-11-20T02:29:00;25.15;;;19.27;;
59074;SDS011;44860;53.020;6.738;2022-11-20T02:31:27;28.63;;;20.33;;
59074;SDS011;44860;53.020;6.738;2022-11-20T02:33:56;25.02;;;19.42;;
59074;SDS011;44860;53.020;6.738;2022-11-20T02:36:23;27.83;;;19.65;;
59074;SDS011;44860;53.020;6.738;2022-11-20T02:38:51;26.50;;;19.73;;
59074;SDS011;44860;53.020;6.738;2022-11-20T02:41:17;25.45;;;19.17;;
59074;SDS011;44860;53.020;6.738;2022-11-20T02:43:42;26.25;;;19.98;;
59074;SDS011;44860;53.020;6.738;2022-11-20T02:46:08;26.48;;;19.30;;
59074;SDS011;44860;53.020;6.738;2022-11-20T02:48:34;27.08;;;18.90;;
59074;SDS011;44860;53.020;6.738;2022-11-20T02:51:00;24.88;;;17.98;;
59074;SDS011;44860;53.020;6.738;2022-11-20T02:53:28;25.30;;;18.92;;
59074;SDS011;44860;53.020;6.738;2022-11-20T02:55:54;23.77;;;17.30;;
59074;SDS011;44860;53.020;6.738;2022-11-20T02:58:23;24.13;;;17.73;;
59074;SDS011;44860;53.020;6.738;2022-11-20T03:00:49;26.83;;;18.95;;
59074;SDS011;44860;53.020;6.738;2022-11-20T03:03:17;23.23;;;18.05;;
59074;SDS011;44860;53.020;6.738;2022-11-20T03:05:43;25.25;;;18.48;;
59074;SDS011;44860;53.020;6.738;2022-11-20T03:08:09;25.80;;;18.10;;
59074;SDS011;44860;53.020;6.738;2022-11-20T03:10:34;22.88;;;17.63;;
59074;SDS011;44860;53.020;6.738;2022-11-20T03:13:01;22.88;;;17.35;;
59074;SDS011;44860;53.020;6.738;2022-11-20T03:15:28;25.42;;;18.17;;
59074;SDS011;44860;53.020;6.738;2022-11-20T03:17:54;23.40;;;16.83;;
59074;SDS011;44860;53.020;6.738;2022-11-20T03:20:21;23.30;;;16.38;;
59074;SDS011;44860;53.020;6.738;2022-11-20T03:22:50;24.10;;;17.65;;
59074;SDS011;44860;53.020;6.738;2022-11-20T03:25:15;23.98;;;16.98;;
59074;SDS011;44860;53.020;6.738;2022-11-20T03:27:41;24.00;;;17.30;;
59074;SDS011;44860;53.020;6.738;2022-11-20T03:30:07;23.75;;;17.20;;
59074;SDS011;44860;53.020;6.738;2022-11-20T03:32:33;24.80;;;16.73;;
59074;SDS011;44860;53.020;6.738;2022-11-20T03:34:58;25.83;;;17.27;;
59074;SDS011;44860;53.020;6.738;2022-11-20T03:37:24;23.00;;;17.25;;
59074;SDS011;44860;53.020;6.738;2022-11-20T03:39:50;24.80;;;18.23;;
59074;SDS011;44860;53.020;6.738;2022-11-20T03:42:15;22.83;;;16.17;;
59074;SDS011;44860;53.020;6.738;2022-11-20T03:44:59;21.83;;;16.95;;
59074;SDS011;44860;53.020;6.738;2022-11-20T03:47:25;23.88;;;17.40;;
59074;SDS011;44860;53.020;6.738;2022-11-20T03:49:51;24.45;;;17.00;;
59074;SDS011;44860;53.020;6.738;2022-11-20T03:52:16;24.30;;;18.33;;
59074;SDS011;44860;53.020;6.738;2022-11-20T03:54:42;22.23;;;17.33;;
59074;SDS011;44860;53.020;6.738;2022-11-20T03:57:07;22.73;;;17.45;;
59074;SDS011;44860;53.020;6.738;2022-11-20T03:59:33;23.45;;;17.35;;
59074;SDS011;44860;53.020;6.738;2022-11-20T04:01:59;23.75;;;17.70;;
59074;SDS011;44860;53.020;6.738;2022-11-20T04:04:24;23.83;;;17.10;;
59074;SDS011;44860;53.020;6.738;2022-11-20T04:06:50;22.92;;;17.15;;
59074;SDS011;44860;53.020;6.738;2022-11-20T04:09:16;22.90;;;17.38;;
59074;SDS011;44860;53.020;6.738;2022-11-20T04:11:41;23.02;;;16.98;;
59074;SDS011;44860;53.020;6.738;2022-11-20T04:14:11;26.48;;;17.88;;
59074;SDS011;44860;53.020;6.738;2022-11-20T04:16:38;23.98;;;17.08;;
59074;SDS011;44860;53.020;6.738;2022-11-20T04:19:05;23.73;;;17.65;;
59074;SDS011;44860;53.020;6.738;2022-11-20T04:21:34;22.55;;;17.17;;
59074;SDS011;44860;53.020;6.738;2022-11-20T04:23:59;23.27;;;16.77;;
59074;SDS011;44860;53.020;6.738;2022-11-20T04:26:26;24.42;;;17.65;;
59074;SDS011;44860;53.020;6.738;2022-11-20T04:28:53;22.10;;;16.70;;
59074;SDS011;44860;53.020;6.738;2022-11-20T04:31:21;22.80;;;17.33;;
59074;SDS011;44860;53.020;6.738;2022-11-20T04:33:50;23.52;;;17.05;;
59074;SDS011;44860;53.020;6.738;2022-11-20T04:36:17;23.55;;;16.98;;
59074;SDS011;44860;53.020;6.738;2022-11-20T04:38:45;23.85;;;17.70;;
59074;SDS011;44860;53.020;6.738;2022-11-20T04:41:14;24.98;;;17.73;;
59074;SDS011;44860;53.020;6.738;2022-11-20T04:43:41;22.33;;;16.17;;
59074;SDS011;44860;53.020;6.738;2022-11-20T04:46:10;23.10;;;16.73;;
59074;SDS011;44860;53.020;6.738;2022-11-20T04:48:36;22.42;;;16.10;;
59074;SDS011;44860;53.020;6.738;2022-11-20T04:51:05;22.67;;;16.67;;
59074;SDS011;44860;53.020;6.738;2022-11-20T04:53:30;21.10;;;16.13;;
59074;SDS011;44860;53.020;6.738;2022-11-20T04:56:03;22.23;;;16.42;;
59074;SDS011;44860;53.020;6.738;2022-11-20T04:58:31;23.30;;;16.65;;
59074;SDS011;44860;53.020;6.738;2022-11-20T05:01:02;23.02;;;16.25;;
59074;SDS011;44860;53.020;6.738;2022-11-20T05:03:29;22.50;;;16.77;;
59074;SDS011;44860;53.020;6.738;2022-11-20T05:05:55;21.40;;;16.10;;
59074;SDS011;44860;53.020;6.738;2022-11-20T05:08:20;20.90;;;16.08;;
59074;SDS011;44860;53.020;6.738;2022-11-20T05:10:46;20.42;;;15.32;;
59074;SDS011;44860;53.020;6.738;2022-11-20T05:13:12;19.98;;;15.15;;
59074;SDS011;44860;53.020;6.738;2022-11-20T05:15:37;20.85;;;15.55;;
59074;SDS011;44860;53.020;6.738;2022-11-20T05:18:03;21.42;;;15.85;;
59074;SDS011;44860;53.020;6.738;2022-11-20T05:20:28;21.85;;;15.10;;
59074;SDS011;44860;53.020;6.738;2022-11-20T05:22:57;20.75;;;14.93;;
59074;SDS011;44860;53.020;6.738;2022-11-20T05:25:23;23.25;;;15.85;;
59074;SDS011;44860;53.020;6.738;2022-11-20T05:27:49;20.45;;;15.32;;
59074;SDS011;44860;53.020;6.738;2022-11-20T05:30:14;20.27;;;14.95;;
59074;SDS011;44860;53.020;6.738;2022-11-20T05:32:40;21.30;;;15.43;;
59074;SDS011;44860;53.020;6.738;2022-11-20T05:35:06;19.27;;;14.60;;
59074;SDS011;44860;53.020;6.738;2022-11-20T05:37:32;21.92;;;15.20;;
59074;SDS011;44860;53.020;6.738;2022-11-20T05:39:57;19.90;;;14.73;;
59074;SDS011;44860;53.020;6.738;2022-11-20T05:42:23;20.15;;;14.73;;
59074;SDS011;44860;53.020;6.738;2022-11-20T05:44:55;18.83;;;14.07;;
59074;SDS011;44860;53.020;6.738;2022-11-20T05:47:21;19.58;;;14.30;;
59074;SDS011;44860;53.020;6.738;2022-11-20T05:49:46;18.00;;;14.18;;
59074;SDS011;44860;53.020;6.738;2022-11-20T05:52:12;20.08;;;14.68;;
59074;SDS011;44860;53.020;6.738;2022-11-20T05:54:37;19.73;;;14.57;;
59074;SDS011;44860;53.020;6.738;2022-11-20T05:57:04;18.80;;;14.60;;
59074;SDS011;44860;53.020;6.738;2022-11-20T05:59:29;19.25;;;14.25;;
59074;SDS011;44860;53.020;6.738;2022-11-20T06:01:55;17.65;;;13.90;;
59074;SDS011;44860;53.020;6.738;2022-11-20T06:04:21;21.45;;;14.88;;
59074;SDS011;44860;53.020;6.738;2022-11-20T06:06:46;19.75;;;14.98;;
59074;SDS011;44860;53.020;6.738;2022-11-20T06:09:12;19.48;;;14.90;;
59074;SDS011;44860;53.020;6.738;2022-11-20T06:11:37;20.23;;;14.27;;
59074;SDS011;44860;53.020;6.738;2022-11-20T06:14:03;17.52;;;13.68;;
59074;SDS011;44860;53.020;6.738;2022-11-20T06:16:29;18.83;;;13.73;;
59074;SDS011;44860;53.020;6.738;2022-11-20T06:18:54;17.58;;;13.63;;
59074;SDS011;44860;53.020;6.738;2022-11-20T06:21:21;17.85;;;13.65;;
59074;SDS011;44860;53.020;6.738;2022-11-20T06:23:47;18.58;;;13.57;;
59074;SDS011;44860;53.020;6.738;2022-11-20T06:26:15;20.20;;;14.43;;
59074;SDS011;44860;53.020;6.738;2022-11-20T06:28:43;19.30;;;14.35;;
59074;SDS011;44860;53.020;6.738;2022-11-20T06:31:10;20.88;;;14.57;;
59074;SDS011;44860;53.020;6.738;2022-11-20T06:33:38;19.13;;;14.00;;
59074;SDS011;44860;53.020;6.738;2022-11-20T06:36:04;17.48;;;13.27;;
59074;SDS011;44860;53.020;6.738;2022-11-20T06:38:30;20.33;;;13.98;;
59074;SDS011;44860;53.020;6.738;2022-11-20T06:40:56;16.92;;;13.05;;
59074;SDS011;44860;53.020;6.738;2022-11-20T06:43:22;17.80;;;13.00;;
59074;SDS011;44860;53.020;6.738;2022-11-20T06:45:54;15.93;;;12.32;;
59074;SDS011;44860;53.020;6.738;2022-11-20T06:48:22;17.95;;;12.57;;
59074;SDS011;44860;53.020;6.738;2022-11-20T06:50:48;17.95;;;12.77;;
59074;SDS011;44860;53.020;6.738;2022-11-20T06:53:14;17.30;;;12.80;;
59074;SDS011;44860;53.020;6.738;2022-11-20T06:55:44;16.77;;;12.60;;
59074;SDS011;44860;53.020;6.738;2022-11-20T06:58:11;17.70;;;12.50;;
59074;SDS011;44860;53.020;6.738;2022-11-20T07:00:38;16.42;;;12.20;;
59074;SDS011;44860;53.020;6.738;2022-11-20T07:03:04;18.67;;;12.45;;
59074;SDS011;44860;53.020;6.738;2022-11-20T07:05:30;17.05;;;12.85;;
59074;SDS011;44860;53.020;6.738;2022-11-20T07:07:56;15.93;;;12.23;;
59074;SDS011;44860;53.020;6.738;2022-11-20T07:10:22;16.85;;;12.60;;
59074;SDS011;44860;53.020;6.738;2022-11-20T07:12:49;16.02;;;11.55;;
59074;SDS011;44860;53.020;6.738;2022-11-20T07:15:18;15.55;;;12.25;;
59074;SDS011;44860;53.020;6.738;2022-11-20T07:17:45;16.42;;;11.75;;
59074;SDS011;44860;53.020;6.738;2022-11-20T07:20:11;16.60;;;12.50;;
59074;SDS011;44860;53.020;6.738;2022-11-20T07:22:37;15.23;;;11.85;;
59074;SDS011;44860;53.020;6.738;2022-11-20T07:25:03;17.95;;;12.38;;
59074;SDS011;44860;53.020;6.738;2022-11-20T07:27:29;17.75;;;12.55;;
59074;SDS011;44860;53.020;6.738;2022-11-20T07:29:55;15.50;;;11.57;;
59074;SDS011;44860;53.020;6.738;2022-11-20T07:32:21;16.00;;;11.80;;
59074;SDS011;44860;53.020;6.738;2022-11-20T07:34:46;16.65;;;12.93;;
59074;SDS011;44860;53.020;6.738;2022-11-20T07:37:12;16.55;;;12.50;;
59074;SDS011;44860;53.020;6.738;2022-11-20T07:39:38;16.77;;;12.68;;
59074;SDS011;44860;53.020;6.738;2022-11-20T07:42:05;16.40;;;12.40;;
59074;SDS011;44860;53.020;6.738;2022-11-20T07:44:31;16.42;;;12.43;;
59074;SDS011;44860;53.020;6.738;2022-11-20T07:46:57;18.30;;;12.45;;
59074;SDS011;44860;53.020;6.738;2022-11-20T07:49:23;17.50;;;12.65;;
59074;SDS011;44860;53.020;6.738;2022-11-20T07:51:51;16.15;;;12.45;;
59074;SDS011;44860;53.020;6.738;2022-11-20T07:54:20;16.88;;;12.13;;
59074;SDS011;44860;53.020;6.738;2022-11-20T07:56:47;16.08;;;12.02;;
59074;SDS011;44860;53.020;6.738;2022-11-20T07:59:13;16.67;;;12.65;;
59074;SDS011;44860;53.020;6.738;2022-11-20T08:01:40;16.92;;;12.05;;
59074;SDS011;44860;53.020;6.738;2022-11-20T08:04:06;18.30;;;12.63;;
59074;SDS011;44860;53.020;6.738;2022-11-20T08:06:32;16.95;;;12.15;;
59074;SDS011;44860;53.020;6.738;2022-11-20T08:08:58;18.05;;;12.45;;
59074;SDS011;44860;53.020;6.738;2022-11-20T08:11:24;16.77;;;12.80;;
59074;SDS011;44860;53.020;6.738;2022-11-20T08:14:08;15.85;;;11.80;;
59074;SDS011;44860;53.020;6.738;2022-11-20T08:16:36;16.30;;;12.30;;
59074;SDS011;44860;53.020;6.738;2022-11-20T08:19:06;17.20;;;12.05;;
59074;SDS011;44860;53.020;6.738;2022-11-20T08:21:32;16.60;;;12.00;;
59074;SDS011;44860;53.020;6.738;2022-11-20T08:23:58;19.17;;;13.82;;
59074;SDS011;44860;53.020;6.738;2022-11-20T08:26:24;21.73;;;16.02;;
59074;SDS011;44860;53.020;6.738;2022-11-20T08:28:54;21.42;;;15.68;;
59074;SDS011;44860;53.020;6.738;2022-11-20T08:31:20;20.13;;;13.88;;
59074;SDS011;44860;53.020;6.738;2022-11-20T08:33:47;21.50;;;15.55;;
59074;SDS011;44860;53.020;6.738;2022-11-20T08:36:13;19.33;;;14.60;;
59074;SDS011;44860;53.020;6.738;2022-11-20T08:38:38;18.27;;;13.15;;
59074;SDS011;44860;53.020;6.738;2022-11-20T08:41:04;17.60;;;13.20;;
59074;SDS011;44860;53.020;6.738;2022-11-20T08:43:56;16.75;;;12.32;;
59074;SDS011;44860;53.020;6.738;2022-11-20T08:46:27;16.98;;;12.57;;
59074;SDS011;44860;53.020;6.738;2022-11-20T08:48:58;17.95;;;12.55;;
59074;SDS011;44860;53.020;6.738;2022-11-20T08:51:24;18.73;;;12.90;;
59074;SDS011;44860;53.020;6.738;2022-11-20T08:53:50;18.63;;;12.60;;
59074;SDS011;44860;53.020;6.738;2022-11-20T08:56:15;16.92;;;12.60;;
59074;SDS011;44860;53.020;6.738;2022-11-20T08:58:42;17.02;;;12.45;;
59074;SDS011;44860;53.020;6.738;2022-11-20T09:01:07;16.55;;;12.13;;
59074;SDS011;44860;53.020;6.738;2022-11-20T09:03:33;15.73;;;11.85;;
59074;SDS011;44860;53.020;6.738;2022-11-20T09:05:59;16.63;;;12.05;;
59074;SDS011;44860;53.020;6.738;2022-11-20T09:08:31;15.18;;;12.10;;
59074;SDS011;44860;53.020;6.738;2022-11-20T09:10:57;18.95;;;14.40;;
59074;SDS011;44860;53.020;6.738;2022-11-20T09:13:24;18.10;;;13.50;;
59074;SDS011;44860;53.020;6.738;2022-11-20T09:16:01;17.80;;;12.85;;
59074;SDS011;44860;53.020;6.738;2022-11-20T09:18:29;17.73;;;13.32;;
59074;SDS011;44860;53.020;6.738;2022-11-20T09:20:59;15.55;;;13.00;;
59074;SDS011;44860;53.020;6.738;2022-11-20T09:23:26;16.10;;;12.13;;
59074;SDS011;44860;53.020;6.738;2022-11-20T09:25:52;18.75;;;11.95;;
59074;SDS011;44860;53.020;6.738;2022-11-20T09:28:20;15.30;;;11.63;;
59074;SDS011;44860;53.020;6.738;2022-11-20T09:30:46;15.25;;;11.73;;
59074;SDS011;44860;53.020;6.738;2022-11-20T09:33:12;16.20;;;13.25;;
59074;SDS011;44860;53.020;6.738;2022-11-20T09:35:37;15.85;;;12.60;;
59074;SDS011;44860;53.020;6.738;2022-11-20T09:38:06;18.70;;;12.60;;
59074;SDS011;44860;53.020;6.738;2022-11-20T09:40:32;15.50;;;12.32;;
59074;SDS011;44860;53.020;6.738;2022-11-20T09:43:20;16.25;;;11.90;;
59074;SDS011;44860;53.020;6.738;2022-11-20T09:46:14;17.90;;;12.77;;
59074;SDS011;44860;53.020;6.738;2022-11-20T09:51:40;15.07;;;11.93;;
59074;SDS011;44860;53.020;6.738;2022-11-20T09:54:33;16.10;;;12.27;;
59074;SDS011;44860;53.020;6.738;2022-11-20T09:57:03;16.80;;;12.45;;
59074;SDS011;44860;53.020;6.738;2022-11-20T09:59:43;16.45;;;12.73;;
59074;SDS011;44860;53.020;6.738;2022-11-20T10:05:11;15.73;;;10.85;;
59074;SDS011;44860;53.020;6.738;2022-11-20T10:10:50;15.73;;;11.75;;
59074;SDS011;44860;53.020;6.738;2022-11-20T10:29:13;15.70;;;11.55;;
59074;SDS011;44860;53.020;6.738;2022-11-20T10:31:52;14.98;;;11.60;;
59074;SDS011;44860;53.020;6.738;2022-11-20T10:37:13;15.57;;;11.38;;
59074;SDS011;44860;53.020;6.738;2022-11-20T10:42:42;13.88;;;9.90;;
59074;SDS011;44860;53.020;6.738;2022-11-20T10:47:49;13.65;;;9.75;;
59074;SDS011;44860;53.020;6.738;2022-11-20T10:50:20;13.07;;;10.27;;
59074;SDS011;44860;53.020;6.738;2022-11-20T10:55:53;13.82;;;9.73;;
59074;SDS011;44860;53.020;6.738;2022-11-20T10:58:43;11.93;;;9.07;;
59074;SDS011;44860;53.020;6.738;2022-11-20T11:01:18;13.77;;;8.88;;
59074;SDS011;44860;53.020;6.738;2022-11-20T11:03:48;12.48;;;9.07;;
59074;SDS011;44860;53.020;6.738;2022-11-20T11:09:19;12.23;;;8.48;;
59074;SDS011;44860;53.020;6.738;2022-11-20T11:11:57;11.63;;;8.52;;
59074;SDS011;44860;53.020;6.738;2022-11-20T11:14:22;11.65;;;8.35;;
59074;SDS011;44860;53.020;6.738;2022-11-20T11:16:53;10.95;;;8.40;;
59074;SDS011;44860;53.020;6.738;2022-11-20T11:19:20;10.93;;;7.95;;
59074;SDS011;44860;53.020;6.738;2022-11-20T11:21:47;10.95;;;8.05;;
59074;SDS011;44860;53.020;6.738;2022-11-20T11:24:25;10.27;;;7.63;;
59074;SDS011;44860;53.020;6.738;2022-11-20T11:27:00;10.65;;;7.97;;
59074;SDS011;44860;53.020;6.738;2022-11-20T11:29:31;11.70;;;8.75;;
59074;SDS011;44860;53.020;6.738;2022-11-20T11:34:30;9.02;;;6.80;;
59074;SDS011;44860;53.020;6.738;2022-11-20T11:36:58;9.63;;;7.07;;
59074;SDS011;44860;53.020;6.738;2022-11-20T11:39:26;9.68;;;6.65;;
59074;SDS011;44860;53.020;6.738;2022-11-20T11:41:53;9.93;;;6.90;;
59074;SDS011;44860;53.020;6.738;2022-11-20T11:44:30;15.23;;;13.52;;
59074;SDS011;44860;53.020;6.738;2022-11-20T11:47:20;9.85;;;6.93;;
59074;SDS011;44860;53.020;6.738;2022-11-20T11:52:42;12.30;;;10.95;;
59074;SDS011;44860;53.020;6.738;2022-11-20T12:00:35;13.52;;;9.13;;
59074;SDS011;44860;53.020;6.738;2022-11-20T12:06:01;10.27;;;7.85;;
59074;SDS011;44860;53.020;6.738;2022-11-20T12:11:33;9.40;;;6.88;;
59074;SDS011;44860;53.020;6.738;2022-11-20T12:16:49;10.38;;;8.02;;
59074;SDS011;44860;53.020;6.738;2022-11-20T12:19:15;11.07;;;7.97;;
59074;SDS011;44860;53.020;6.738;2022-11-20T12:21:54;9.88;;;7.35;;
59074;SDS011;44860;53.020;6.738;2022-11-20T12:25:01;9.50;;;7.07;;
59074;SDS011;44860;53.020;6.738;2022-11-20T12:52:58;11.35;;;8.38;;
59074;SDS011;44860;53.020;6.738;2022-11-20T12:58:23;12.90;;;9.15;;
59074;SDS011;44860;53.020;6.738;2022-11-20T13:03:50;10.93;;;8.27;;
59074;SDS011;44860;53.020;6.738;2022-11-20T13:06:22;11.88;;;8.82;;
59074;SDS011;44860;53.020;6.738;2022-11-20T13:08:55;12.02;;;8.57;;
59074;SDS011;44860;53.020;6.738;2022-11-20T13:16:48;12.05;;;8.45;;
59074;SDS011;44860;53.020;6.738;2022-11-20T13:19:16;11.05;;;8.57;;
59074;SDS011;44860;53.020;6.738;2022-11-20T13:21:44;11.40;;;8.70;;
59074;SDS011;44860;53.020;6.738;2022-11-20T13:27:16;11.68;;;8.18;;
59074;SDS011;44860;53.020;6.738;2022-11-20T13:29:46;12.20;;;8.98;;
59074;SDS011;44860;53.020;6.738;2022-11-20T13:32:23;11.35;;;9.00;;
59074;SDS011;44860;53.020;6.738;2022-11-20T13:34:53;11.82;;;8.93;;
59074;SDS011;44860;53.020;6.738;2022-11-20T13:40:11;12.15;;;9.02;;
59074;SDS011;44860;53.020;6.738;2022-11-20T13:42:40;13.18;;;9.65;;
59074;SDS011;44860;53.020;6.738;2022-11-20T13:45:26;13.90;;;9.77;;
59074;SDS011;44860;53.020;6.738;2022-11-20T13:47:54;13.35;;;10.05;;
59074;SDS011;44860;53.020;6.738;2022-11-20T13:56:01;12.13;;;9.38;;
59074;SDS011;44860;53.020;6.738;2022-11-20T13:58:52;13.43;;;9.82;;
59074;SDS011;44860;53.020;6.738;2022-11-20T14:01:32;13.98;;;10.10;;
59074;SDS011;44860;53.020;6.738;2022-11-20T14:03:59;13.07;;;10.52;;
59074;SDS011;44860;53.020;6.738;2022-11-20T14:06:35;14.48;;;10.77;;
59074;SDS011;44860;53.020;6.738;2022-11-20T14:09:27;14.15;;;11.00;;
59074;SDS011;44860;53.020;6.738;2022-11-20T14:11:55;14.63;;;10.60;;
59074;SDS011;44860;53.020;6.738;2022-11-20T14:14:24;13.40;;;9.80;;
59074;SDS011;44860;53.020;6.738;2022-11-20T14:16:51;13.90;;;10.15;;
59074;SDS011;44860;53.020;6.738;2022-11-20T14:22:09;13.63;;;10.20;;
59074;SDS011;44860;53.020;6.738;2022-11-20T14:24:42;13.02;;;10.18;;
59074;SDS011;44860;53.020;6.738;2022-11-20T14:27:15;12.40;;;10.13;;
59074;SDS011;44860;53.020;6.738;2022-11-20T14:29:43;14.60;;;9.98;;
59074;SDS011;44860;53.020;6.738;2022-11-20T14:32:11;14.27;;;10.07;;
59074;SDS011;44860;53.020;6.738;2022-11-20T14:34:39;13.40;;;10.32;;
59074;SDS011;44860;53.020;6.738;2022-11-20T14:37:11;15.32;;;10.52;;
59074;SDS011;44860;53.020;6.738;2022-11-20T14:39:46;12.82;;;9.90;;
59074;SDS011;44860;53.020;6.738;2022-11-20T14:42:18;12.48;;;9.73;;
59074;SDS011;44860;53.020;6.738;2022-11-20T14:44:47;12.82;;;9.50;;
59074;SDS011;44860;53.020;6.738;2022-11-20T14:47:15;12.45;;;9.38;;
59074;SDS011;44860;53.020;6.738;2022-11-20T14:49:54;11.23;;;9.13;;
59074;SDS011;44860;53.020;6.738;2022-11-20T14:52:22;13.63;;;9.70;;
59074;SDS011;44860;53.020;6.738;2022-11-20T14:54:52;13.10;;;9.70;;
59074;SDS011;44860;53.020;6.738;2022-11-20T14:57:29;11.60;;;9.35;;
59074;SDS011;44860;53.020;6.738;2022-11-20T15:02:41;11.63;;;9.13;;
59074;SDS011;44860;53.020;6.738;2022-11-20T15:05:07;14.90;;;10.93;;
59074;SDS011;44860;53.020;6.738;2022-11-20T15:07:38;16.08;;;11.80;;
59074;SDS011;44860;53.020;6.738;2022-11-20T15:10:29;15.63;;;11.65;;
59074;SDS011;44860;53.020;6.738;2022-11-20T15:13:01;15.30;;;11.52;;
59074;SDS011;44860;53.020;6.738;2022-11-20T15:15:33;16.75;;;12.48;;
59074;SDS011;44860;53.020;6.738;2022-11-20T15:18:04;16.15;;;12.10;;
59074;SDS011;44860;53.020;6.738;2022-11-20T15:20:33;15.48;;;12.00;;
59074;SDS011;44860;53.020;6.738;2022-11-20T15:23:01;17.15;;;12.30;;
59074;SDS011;44860;53.020;6.738;2022-11-20T15:25:27;16.55;;;12.27;;
59074;SDS011;44860;53.020;6.738;2022-11-20T15:27:54;16.00;;;12.82;;
59074;SDS011;44860;53.020;6.738;2022-11-20T15:30:21;16.65;;;12.43;;
59074;SDS011;44860;53.020;6.738;2022-11-20T15:32:47;16.70;;;13.05;;
59074;SDS011;44860;53.020;6.738;2022-11-20T15:35:13;20.02;;;14.40;;
59074;SDS011;44860;53.020;6.738;2022-11-20T15:37:40;17.73;;;13.75;;
59074;SDS011;44860;53.020;6.738;2022-11-20T15:40:07;16.52;;;13.20;;
59074;SDS011;44860;53.020;6.738;2022-11-20T15:42:33;15.13;;;12.23;;
59074;SDS011;44860;53.020;6.738;2022-11-20T15:44:59;16.15;;;13.05;;
59074;SDS011;44860;53.020;6.738;2022-11-20T15:47:27;15.57;;;12.40;;
59074;SDS011;44860;53.020;6.738;2022-11-20T15:49:56;16.88;;;12.60;;
59074;SDS011;44860;53.020;6.738;2022-11-20T15:52:21;14.93;;;12.00;;
59074;SDS011;44860;53.020;6.738;2022-11-20T15:54:47;19.65;;;13.70;;
59074;SDS011;44860;53.020;6.738;2022-11-20T15:57:13;18.17;;;13.10;;
59074;SDS011;44860;53.020;6.738;2022-11-20T15:59:39;17.30;;;13.18;;
59074;SDS011;44860;53.020;6.738;2022-11-20T16:02:13;15.93;;;13.00;;
59074;SDS011;44860;53.020;6.738;2022-11-20T16:07:06;18.63;;;12.80;;
59074;SDS011;44860;53.020;6.738;2022-11-20T16:09:31;17.05;;;12.68;;
59074;SDS011;44860;53.020;6.738;2022-11-20T16:11:57;32.67;;;22.50;;
59074;SDS011;44860;53.020;6.738;2022-11-20T16:14:25;96.90;;;59.25;;
59074;SDS011;44860;53.020;6.738;2022-11-20T16:17:09;24.08;;;17.77;;
59074;SDS011;44860;53.020;6.738;2022-11-20T16:19:35;18.38;;;14.32;;
59074;SDS011;44860;53.020;6.738;2022-11-20T16:22:01;19.35;;;15.45;;
59074;SDS011;44860;53.020;6.738;2022-11-20T16:24:27;18.05;;;13.73;;
59074;SDS011;44860;53.020;6.738;2022-11-20T16:26:53;16.70;;;13.15;;
59074;SDS011;44860;53.020;6.738;2022-11-20T16:29:19;18.85;;;13.52;;
59074;SDS011;44860;53.020;6.738;2022-11-20T16:31:45;17.42;;;14.30;;